Aviation Digital Data Service (ADDS)

Output produced by METARs form (0211 UTC 22 February 2019)
found at http://www.aviationweather.gov/metar/data/
 
METAR text: GMAD 220200Z 07006KT CAVOK 12/M01 Q1023 NOSIG
Conditions at: GMAD (AL MASSIRA MC , MA) observed 0200 UTC 22 February 2019
Temperature: 12.0°C (54°F)
Dewpoint: -1.0°C (30°F) [RH = 40%]
Pressure (altimeter): 30.21 inches Hg (1023.0 mb)
Winds: from the ENE (70 degrees) at 7 MPH (6 knots; 3.1 m/s)
Visibility: 6 or more miles (10+ km)
Ceiling: ceiling and visibility are OK
Clouds: unknown
Weather: no significant weather observed at this time

METAR text: GMAD 220130Z 08006KT CAVOK 13/M01 Q1023 NOSIG
Conditions at: GMAD (AL MASSIRA MC , MA) observed 0130 UTC 22 February 2019
Temperature: 13.0°C (55°F)
Dewpoint: -1.0°C (30°F) [RH = 38%]
Pressure (altimeter): 30.21 inches Hg (1023.0 mb)
Winds: from the E (80 degrees) at 7 MPH (6 knots; 3.1 m/s)
Visibility: 6 or more miles (10+ km)
Ceiling: ceiling and visibility are OK
Clouds: unknown
Weather: no significant weather observed at this time

METAR text: GMAD 220100Z 09006KT CAVOK 12/M01 Q1024 NOSIG
Conditions at: GMAD (AL MASSIRA MC , MA) observed 0100 UTC 22 February 2019
Temperature: 12.0°C (54°F)
Dewpoint: -1.0°C (30°F) [RH = 40%]
Pressure (altimeter): 30.24 inches Hg (1024.0 mb)
Winds: from the E (90 degrees) at 7 MPH (6 knots; 3.1 m/s)
Visibility: 6 or more miles (10+ km)
Ceiling: ceiling and visibility are OK
Clouds: unknown
Weather: no significant weather observed at this time

METAR text: GMAD 220030Z 09005KT CAVOK 11/00 Q1024 NOSIG
Conditions at: GMAD (AL MASSIRA MC , MA) observed 0030 UTC 22 February 2019
Temperature: 11.0°C (52°F)
Dewpoint: 0.0°C (32°F) [RH = 47%]
Pressure (altimeter): 30.24 inches Hg (1024.0 mb)
Winds: from the E (90 degrees) at 6 MPH (5 knots; 2.6 m/s)
Visibility: 6 or more miles (10+ km)
Ceiling: ceiling and visibility are OK
Clouds: unknown
Weather: no significant weather observed at this time

METAR text: GMAD 220000Z 08004KT CAVOK 12/00 Q1024 NOSIG
Conditions at: GMAD (AL MASSIRA MC , MA) observed 0000 UTC 22 February 2019
Temperature: 12.0°C (54°F)
Dewpoint: 0.0°C (32°F) [RH = 44%]
Pressure (altimeter): 30.24 inches Hg (1024.0 mb)
Winds: from the E (80 degrees) at 5 MPH (4 knots; 2.1 m/s)
Visibility: 6 or more miles (10+ km)
Ceiling: ceiling and visibility are OK
Clouds: unknown
Weather: no significant weather observed at this time

METAR text: GMAD 212330Z 06004KT CAVOK 14/00 Q1024 NOSIG
Conditions at: GMAD (AL MASSIRA MC , MA) observed 2330 UTC 21 February 2019
Temperature: 14.0°C (57°F)
Dewpoint: 0.0°C (32°F) [RH = 38%]
Pressure (altimeter): 30.24 inches Hg (1024.0 mb)
Winds: from the ENE (60 degrees) at 5 MPH (4 knots; 2.1 m/s)
Visibility: 6 or more miles (10+ km)
Ceiling: ceiling and visibility are OK
Clouds: unknown
Weather: no significant weather observed at this time

METAR text: GMAD 212300Z 08006KT CAVOK 15/01 Q1024 NOSIG
Conditions at: GMAD (AL MASSIRA MC , MA) observed 2300 UTC 21 February 2019
Temperature: 15.0°C (59°F)
Dewpoint: 1.0°C (34°F) [RH = 39%]
Pressure (altimeter): 30.24 inches Hg (1024.0 mb)
Winds: from the E (80 degrees) at 7 MPH (6 knots; 3.1 m/s)
Visibility: 6 or more miles (10+ km)
Ceiling: ceiling and visibility are OK
Clouds: unknown
Weather: no significant weather observed at this time

METAR text: GMAD 212230Z 18008KT 020V190 CAVOK 15/01 Q1024 NOSIG
Conditions at: GMAD (AL MASSIRA MC , MA) observed 2230 UTC 21 February 2019
Temperature: 15.0°C (59°F)
Dewpoint: 1.0°C (34°F) [RH = 39%]
Pressure (altimeter): 30.24 inches Hg (1024.0 mb)
Winds: from the S (180 degrees) at 9 MPH (8 knots; 4.1 m/s)
Visibility: 6 or more miles (10+ km)
Ceiling: ceiling and visibility are OK
Clouds: unknown
Weather: no significant weather observed at this time

METAR text: GMAD 212200Z 19009KT CAVOK 17/02 Q1023 NOSIG
Conditions at: GMAD (AL MASSIRA MC , MA) observed 2200 UTC 21 February 2019
Temperature: 17.0°C (63°F)
Dewpoint: 2.0°C (36°F) [RH = 36%]
Pressure (altimeter): 30.21 inches Hg (1023.0 mb)
Winds: from the S (190 degrees) at 10 MPH (9 knots; 4.6 m/s)
Visibility: 6 or more miles (10+ km)
Ceiling: ceiling and visibility are OK
Clouds: unknown
Weather: no significant weather observed at this time

METAR text: GMAD 212130Z 20009KT CAVOK 17/02 Q1023 NOSIG
Conditions at: GMAD (AL MASSIRA MC , MA) observed 2130 UTC 21 February 2019
Temperature: 17.0°C (63°F)
Dewpoint: 2.0°C (36°F) [RH = 36%]
Pressure (altimeter): 30.21 inches Hg (1023.0 mb)
Winds: from the SSW (200 degrees) at 10 MPH (9 knots; 4.6 m/s)
Visibility: 6 or more miles (10+ km)
Ceiling: ceiling and visibility are OK
Clouds: unknown
Weather: no significant weather observed at this time

METAR text: GMAD 212100Z 19008KT CAVOK 18/01 Q1022 NOSIG
Conditions at: GMAD (AL MASSIRA MC , MA) observed 2100 UTC 21 February 2019
Temperature: 18.0°C (64°F)
Dewpoint: 1.0°C (34°F) [RH = 32%]
Pressure (altimeter): 30.18 inches Hg (1022.0 mb)
Winds: from the S (190 degrees) at 9 MPH (8 knots; 4.1 m/s)
Visibility: 6 or more miles (10+ km)
Ceiling: ceiling and visibility are OK
Clouds: unknown
Weather: no significant weather observed at this time

METAR text: GMAD 212030Z 22007KT CAVOK 18/M01 Q1022 NOSIG
Conditions at: GMAD (AL MASSIRA MC , MA) observed 2030 UTC 21 February 2019
Temperature: 18.0°C (64°F)
Dewpoint: -1.0°C (30°F) [RH = 28%]
Pressure (altimeter): 30.18 inches Hg (1022.0 mb)
Winds: from the SW (220 degrees) at 8 MPH (7 knots; 3.6 m/s)
Visibility: 6 or more miles (10+ km)
Ceiling: ceiling and visibility are OK
Clouds: unknown
Weather: no significant weather observed at this time

METAR text: GMAD 212000Z 25008KT 200V260 CAVOK 19/M03 Q1021 NOSIG
Conditions at: GMAD (AL MASSIRA MC , MA) observed 2000 UTC 21 February 2019
Temperature: 19.0°C (66°F)
Dewpoint: -3.0°C (27°F) [RH = 22%]
Pressure (altimeter): 30.15 inches Hg (1021.0 mb)
Winds: from the WSW (250 degrees) at 9 MPH (8 knots; 4.1 m/s)
Visibility: 6 or more miles (10+ km)
Ceiling: ceiling and visibility are OK
Clouds: unknown
Weather: no significant weather observed at this time

METAR text: GMAD 211930Z 27008KT CAVOK 20/M04 Q1021 NOSIG
Conditions at: GMAD (AL MASSIRA MC , MA) observed 1930 UTC 21 February 2019
Temperature: 20.0°C (68°F)
Dewpoint: -4.0°C (25°F) [RH = 19%]
Pressure (altimeter): 30.15 inches Hg (1021.0 mb)
Winds: from the W (270 degrees) at 9 MPH (8 knots; 4.1 m/s)
Visibility: 6 or more miles (10+ km)
Ceiling: ceiling and visibility are OK
Clouds: unknown
Weather: no significant weather observed at this time

METAR text: GMAD 211900Z 28009KT CAVOK 20/M05 Q1021 NOSIG
Conditions at: GMAD (AL MASSIRA MC , MA) observed 1900 UTC 21 February 2019
Temperature: 20.0°C (68°F)
Dewpoint: -5.0°C (23°F) [RH = 18%]
Pressure (altimeter): 30.15 inches Hg (1021.0 mb)
Winds: from the W (280 degrees) at 10 MPH (9 knots; 4.6 m/s)
Visibility: 6 or more miles (10+ km)
Ceiling: ceiling and visibility are OK
Clouds: unknown
Weather: no significant weather observed at this time

METAR text: GMAD 211830Z 28010KT CAVOK 22/M05 Q1020 NOSIG
Conditions at: GMAD (AL MASSIRA MC , MA) observed 1830 UTC 21 February 2019
Temperature: 22.0°C (72°F)
Dewpoint: -5.0°C (23°F) [RH = 16%]
Pressure (altimeter): 30.12 inches Hg (1020.0 mb)
Winds: from the W (280 degrees) at 12 MPH (10 knots; 5.1 m/s)
Visibility: 6 or more miles (10+ km)
Ceiling: ceiling and visibility are OK
Clouds: unknown
Weather: no significant weather observed at this time

METAR text: GMAD 211800Z 28011KT CAVOK 24/M04 Q1020 NOSIG
Conditions at: GMAD (AL MASSIRA MC , MA) observed 1800 UTC 21 February 2019
Temperature: 24.0°C (75°F)
Dewpoint: -4.0°C (25°F) [RH = 15%]
Pressure (altimeter): 30.12 inches Hg (1020.0 mb)
Winds: from the W (280 degrees) at 13 MPH (11 knots; 5.7 m/s)
Visibility: 6 or more miles (10+ km)
Ceiling: ceiling and visibility are OK
Clouds: unknown
Weather: no significant weather observed at this time

METAR text: GMAD 211730Z 28013KT CAVOK 25/M03 Q1020 NOSIG
Conditions at: GMAD (AL MASSIRA MC , MA) observed 1730 UTC 21 February 2019
Temperature: 25.0°C (77°F)
Dewpoint: -3.0°C (27°F) [RH = 15%]
Pressure (altimeter): 30.12 inches Hg (1020.0 mb)
Winds: from the W (280 degrees) at 15 MPH (13 knots; 6.7 m/s)
Visibility: 6 or more miles (10+ km)
Ceiling: ceiling and visibility are OK
Clouds: unknown
Weather: no significant weather observed at this time

METAR text: GMAD 211700Z 28014KT CAVOK 25/M01 Q1020 NOSIG
Conditions at: GMAD (AL MASSIRA MC , MA) observed 1700 UTC 21 February 2019
Temperature: 25.0°C (77°F)
Dewpoint: -1.0°C (30°F) [RH = 18%]
Pressure (altimeter): 30.12 inches Hg (1020.0 mb)
Winds: from the W (280 degrees) at 16 MPH (14 knots; 7.2 m/s)
Visibility: 6 or more miles (10+ km)
Ceiling: ceiling and visibility are OK
Clouds: unknown
Weather: no significant weather observed at this time

METAR text: GMAD 211630Z 29012KT CAVOK 25/00 Q1020 NOSIG
Conditions at: GMAD (AL MASSIRA MC , MA) observed 1630 UTC 21 February 2019
Temperature: 25.0°C (77°F)
Dewpoint: 0.0°C (32°F) [RH = 19%]
Pressure (altimeter): 30.12 inches Hg (1020.0 mb)
Winds: from the WNW (290 degrees) at 14 MPH (12 knots; 6.2 m/s)
Visibility: 6 or more miles (10+ km)
Ceiling: ceiling and visibility are OK
Clouds: unknown
Weather: no significant weather observed at this time

METAR text: GMAD 211600Z 30009KT CAVOK 27/02 Q1020 NOSIG
Conditions at: GMAD (AL MASSIRA MC , MA) observed 1600 UTC 21 February 2019
Temperature: 27.0°C (81°F)
Dewpoint: 2.0°C (36°F) [RH = 20%]
Pressure (altimeter): 30.12 inches Hg (1020.0 mb)
Winds: from the WNW (300 degrees) at 10 MPH (9 knots; 4.6 m/s)
Visibility: 6 or more miles (10+ km)
Ceiling: ceiling and visibility are OK
Clouds: unknown
Weather: no significant weather observed at this time

METAR text: GMAD 211530Z 28006KT CAVOK 28/M04 Q1020 NOSIG
Conditions at: GMAD (AL MASSIRA MC , MA) observed 1530 UTC 21 February 2019
Temperature: 28.0°C (82°F)
Dewpoint: -4.0°C (25°F) [RH = 12%]
Pressure (altimeter): 30.12 inches Hg (1020.0 mb)
Winds: from the W (280 degrees) at 7 MPH (6 knots; 3.1 m/s)
Visibility: 6 or more miles (10+ km)
Ceiling: ceiling and visibility are OK
Clouds: unknown
Weather: no significant weather observed at this time

METAR text: GMAD 211500Z 23004KT CAVOK 28/M06 Q1020 NOSIG
Conditions at: GMAD (AL MASSIRA MC , MA) observed 1500 UTC 21 February 2019
Temperature: 28.0°C (82°F)
Dewpoint: -6.0°C (21°F) [RH = 10%]
Pressure (altimeter): 30.12 inches Hg (1020.0 mb)
Winds: from the SW (230 degrees) at 5 MPH (4 knots; 2.1 m/s)
Visibility: 6 or more miles (10+ km)
Ceiling: ceiling and visibility are OK
Clouds: unknown
Weather: no significant weather observed at this time

METAR text: GMAD 211430Z 18004KT 190V270 CAVOK 28/M06 Q1020 NOSIG
Conditions at: GMAD (AL MASSIRA MC , MA) observed 1430 UTC 21 February 2019
Temperature: 28.0°C (82°F)
Dewpoint: -6.0°C (21°F) [RH = 10%]
Pressure (altimeter): 30.12 inches Hg (1020.0 mb)
Winds: from the S (180 degrees) at 5 MPH (4 knots; 2.1 m/s)
Visibility: 6 or more miles (10+ km)
Ceiling: ceiling and visibility are OK
Clouds: unknown
Weather: no significant weather observed at this time

METAR text: GMAD 211330Z 15004KT CAVOK 27/M06 Q1020 NOSIG
Conditions at: GMAD (AL MASSIRA MC , MA) observed 1330 UTC 21 February 2019
Temperature: 27.0°C (81°F)
Dewpoint: -6.0°C (21°F) [RH = 11%]
Pressure (altimeter): 30.12 inches Hg (1020.0 mb)
Winds: from the SSE (150 degrees) at 5 MPH (4 knots; 2.1 m/s)
Visibility: 6 or more miles (10+ km)
Ceiling: ceiling and visibility are OK
Clouds: unknown
Weather: no significant weather observed at this time

METAR text: GMAD 211300Z 12005KT 140V290 CAVOK 27/M06 Q1021 NOSIG
Conditions at: GMAD (AL MASSIRA MC , MA) observed 1300 UTC 21 February 2019
Temperature: 27.0°C (81°F)
Dewpoint: -6.0°C (21°F) [RH = 11%]
Pressure (altimeter): 30.15 inches Hg (1021.0 mb)
Winds: from the ESE (120 degrees) at 6 MPH (5 knots; 2.6 m/s)
Visibility: 6 or more miles (10+ km)
Ceiling: ceiling and visibility are OK
Clouds: unknown
Weather: no significant weather observed at this time

METAR text: GMAD 211230Z 08006KT CAVOK 27/M04 Q1021 NOSIG
Conditions at: GMAD (AL MASSIRA MC , MA) observed 1230 UTC 21 February 2019
Temperature: 27.0°C (81°F)
Dewpoint: -4.0°C (25°F) [RH = 13%]
Pressure (altimeter): 30.15 inches Hg (1021.0 mb)
Winds: from the E (80 degrees) at 7 MPH (6 knots; 3.1 m/s)
Visibility: 6 or more miles (10+ km)
Ceiling: ceiling and visibility are OK
Clouds: unknown
Weather: no significant weather observed at this time

METAR text: GMAD 211200Z 06006KT 030V170 CAVOK 26/M02 Q1021 NOSIG
Conditions at: GMAD (AL MASSIRA MC , MA) observed 1200 UTC 21 February 2019
Temperature: 26.0°C (79°F)
Dewpoint: -2.0°C (28°F) [RH = 16%]
Pressure (altimeter): 30.15 inches Hg (1021.0 mb)
Winds: from the ENE (60 degrees) at 7 MPH (6 knots; 3.1 m/s)
Visibility: 6 or more miles (10+ km)
Ceiling: ceiling and visibility are OK
Clouds: unknown
Weather: no significant weather observed at this time

METAR text: GMAD 211130Z 05008KT 020V090 CAVOK 24/00 Q1022 NOSIG
Conditions at: GMAD (AL MASSIRA MC , MA) observed 1130 UTC 21 February 2019
Temperature: 24.0°C (75°F)
Dewpoint: 0.0°C (32°F) [RH = 20%]
Pressure (altimeter): 30.18 inches Hg (1022.0 mb)
Winds: from the NE (50 degrees) at 9 MPH (8 knots; 4.1 m/s)
Visibility: 6 or more miles (10+ km)
Ceiling: ceiling and visibility are OK
Clouds: unknown
Weather: no significant weather observed at this time

METAR text: GMAD 211100Z 05009KT CAVOK 22/01 Q1021 NOSIG
Conditions at: GMAD (AL MASSIRA MC , MA) observed 1100 UTC 21 February 2019
Temperature: 22.0°C (72°F)
Dewpoint: 1.0°C (34°F) [RH = 25%]
Pressure (altimeter): 30.15 inches Hg (1021.0 mb)
Winds: from the NE (50 degrees) at 10 MPH (9 knots; 4.6 m/s)
Visibility: 6 or more miles (10+ km)
Ceiling: ceiling and visibility are OK
Clouds: unknown
Weather: no significant weather observed at this time

METAR text: GMAD 211000Z 05009KT CAVOK 18/02 Q1022 NOSIG
Conditions at: GMAD (AL MASSIRA MC , MA) observed 1000 UTC 21 February 2019
Temperature: 18.0°C (64°F)
Dewpoint: 2.0°C (36°F) [RH = 34%]
Pressure (altimeter): 30.18 inches Hg (1022.0 mb)
Winds: from the NE (50 degrees) at 10 MPH (9 knots; 4.6 m/s)
Visibility: 6 or more miles (10+ km)
Ceiling: ceiling and visibility are OK
Clouds: unknown
Weather: no significant weather observed at this time

METAR text: GMAD 210930Z 06009KT CAVOK 16/02 Q1022 NOSIG
Conditions at: GMAD (AL MASSIRA MC , MA) observed 0930 UTC 21 February 2019
Temperature: 16.0°C (61°F)
Dewpoint: 2.0°C (36°F) [RH = 39%]
Pressure (altimeter): 30.18 inches Hg (1022.0 mb)
Winds: from the ENE (60 degrees) at 10 MPH (9 knots; 4.6 m/s)
Visibility: 6 or more miles (10+ km)
Ceiling: ceiling and visibility are OK
Clouds: unknown
Weather: no significant weather observed at this time

METAR text: GMAD 210900Z 08008KT CAVOK 14/04 Q1021 NOSIG
Conditions at: GMAD (AL MASSIRA MC , MA) observed 0900 UTC 21 February 2019
Temperature: 14.0°C (57°F)
Dewpoint: 4.0°C (39°F) [RH = 51%]
Pressure (altimeter): 30.15 inches Hg (1021.0 mb)
Winds: from the E (80 degrees) at 9 MPH (8 knots; 4.1 m/s)
Visibility: 6 or more miles (10+ km)
Ceiling: ceiling and visibility are OK
Clouds: unknown
Weather: no significant weather observed at this time

METAR text: GMAD 210830Z 10008KT CAVOK 11/04 Q1021 NOSIG
Conditions at: GMAD (AL MASSIRA MC , MA) observed 0830 UTC 21 February 2019
Temperature: 11.0°C (52°F)
Dewpoint: 4.0°C (39°F) [RH = 62%]
Pressure (altimeter): 30.15 inches Hg (1021.0 mb)
Winds: from the E (100 degrees) at 9 MPH (8 knots; 4.1 m/s)
Visibility: 6 or more miles (10+ km)
Ceiling: ceiling and visibility are OK
Clouds: unknown
Weather: no significant weather observed at this time

METAR text: GMAD 210800Z 11008KT CAVOK 09/04 Q1021 NOSIG
Conditions at: GMAD (AL MASSIRA MC , MA) observed 0800 UTC 21 February 2019
Temperature: 9.0°C (48°F)
Dewpoint: 4.0°C (39°F) [RH = 71%]
Pressure (altimeter): 30.15 inches Hg (1021.0 mb)
Winds: from the ESE (110 degrees) at 9 MPH (8 knots; 4.1 m/s)
Visibility: 6 or more miles (10+ km)
Ceiling: ceiling and visibility are OK
Clouds: unknown
Weather: no significant weather observed at this time

METAR text: GMAD 210730Z 11008KT CAVOK 08/04 Q1021 NOSIG
Conditions at: GMAD (AL MASSIRA MC , MA) observed 0730 UTC 21 February 2019
Temperature: 8.0°C (46°F)
Dewpoint: 4.0°C (39°F) [RH = 76%]
Pressure (altimeter): 30.15 inches Hg (1021.0 mb)
Winds: from the ESE (110 degrees) at 9 MPH (8 knots; 4.1 m/s)
Visibility: 6 or more miles (10+ km)
Ceiling: ceiling and visibility are OK
Clouds: unknown
Weather: no significant weather observed at this time

METAR text: GMAD 210700Z 09007KT CAVOK 07/05 Q1020 NOSIG
Conditions at: GMAD (AL MASSIRA MC , MA) observed 0700 UTC 21 February 2019
Temperature: 7.0°C (45°F)
Dewpoint: 5.0°C (41°F) [RH = 87%]
Pressure (altimeter): 30.12 inches Hg (1020.0 mb)
Winds: from the E (90 degrees) at 8 MPH (7 knots; 3.6 m/s)
Visibility: 6 or more miles (10+ km)
Ceiling: ceiling and visibility are OK
Clouds: unknown
Weather: no significant weather observed at this time

METAR text: GMAD 210630Z 06008KT CAVOK 09/04 Q1020 NOSIG
Conditions at: GMAD (AL MASSIRA MC , MA) observed 0630 UTC 21 February 2019
Temperature: 9.0°C (48°F)
Dewpoint: 4.0°C (39°F) [RH = 71%]
Pressure (altimeter): 30.12 inches Hg (1020.0 mb)
Winds: from the ENE (60 degrees) at 9 MPH (8 knots; 4.1 m/s)
Visibility: 6 or more miles (10+ km)
Ceiling: ceiling and visibility are OK
Clouds: unknown
Weather: no significant weather observed at this time

METAR text: GMAD 210600Z 06009KT CAVOK 10/05 Q1020 NOSIG
Conditions at: GMAD (AL MASSIRA MC , MA) observed 0600 UTC 21 February 2019
Temperature: 10.0°C (50°F)
Dewpoint: 5.0°C (41°F) [RH = 71%]
Pressure (altimeter): 30.12 inches Hg (1020.0 mb)
Winds: from the ENE (60 degrees) at 10 MPH (9 knots; 4.6 m/s)
Visibility: 6 or more miles (10+ km)
Ceiling: ceiling and visibility are OK
Clouds: unknown
Weather: no significant weather observed at this time

METAR text: GMAD 210530Z 07008KT CAVOK 10/05 Q1019 NOSIG
Conditions at: GMAD (AL MASSIRA MC , MA) observed 0530 UTC 21 February 2019
Temperature: 10.0°C (50°F)
Dewpoint: 5.0°C (41°F) [RH = 71%]
Pressure (altimeter): 30.09 inches Hg (1019.0 mb)
Winds: from the ENE (70 degrees) at 9 MPH (8 knots; 4.1 m/s)
Visibility: 6 or more miles (10+ km)
Ceiling: ceiling and visibility are OK
Clouds: unknown
Weather: no significant weather observed at this time

METAR text: GMAD 210500Z 07009KT CAVOK 10/06 Q1019 NOSIG
Conditions at: GMAD (AL MASSIRA MC , MA) observed 0500 UTC 21 February 2019
Temperature: 10.0°C (50°F)
Dewpoint: 6.0°C (43°F) [RH = 76%]
Pressure (altimeter): 30.09 inches Hg (1019.0 mb)
Winds: from the ENE (70 degrees) at 10 MPH (9 knots; 4.6 m/s)
Visibility: 6 or more miles (10+ km)
Ceiling: ceiling and visibility are OK
Clouds: unknown
Weather: no significant weather observed at this time

METAR text: GMAD 210430Z 07009KT CAVOK 10/07 Q1019 NOSIG
Conditions at: GMAD (AL MASSIRA MC , MA) observed 0430 UTC 21 February 2019
Temperature: 10.0°C (50°F)
Dewpoint: 7.0°C (45°F) [RH = 82%]
Pressure (altimeter): 30.09 inches Hg (1019.0 mb)
Winds: from the ENE (70 degrees) at 10 MPH (9 knots; 4.6 m/s)
Visibility: 6 or more miles (10+ km)
Ceiling: ceiling and visibility are OK
Clouds: unknown
Weather: no significant weather observed at this time

METAR text: GMAD 210400Z 06008KT CAVOK 09/07 Q1019 NOSIG
Conditions at: GMAD (AL MASSIRA MC , MA) observed 0400 UTC 21 February 2019
Temperature: 9.0°C (48°F)
Dewpoint: 7.0°C (45°F) [RH = 87%]
Pressure (altimeter): 30.09 inches Hg (1019.0 mb)
Winds: from the ENE (60 degrees) at 9 MPH (8 knots; 4.1 m/s)
Visibility: 6 or more miles (10+ km)
Ceiling: ceiling and visibility are OK
Clouds: unknown
Weather: no significant weather observed at this time

METAR text: GMAD 210330Z 06007KT CAVOK 08/08 Q1019 NOSIG
Conditions at: GMAD (AL MASSIRA MC , MA) observed 0330 UTC 21 February 2019
Temperature: 8.0°C (46°F)
Dewpoint: 8.0°C (46°F) [RH = 100%]
Pressure (altimeter): 30.09 inches Hg (1019.0 mb)
Winds: from the ENE (60 degrees) at 8 MPH (7 knots; 3.6 m/s)
Visibility: 6 or more miles (10+ km)
Ceiling: ceiling and visibility are OK
Clouds: unknown
Weather: no significant weather observed at this time

METAR text: GMAD 210300Z 07007KT CAVOK 08/08 Q1020 NOSIG
Conditions at: GMAD (AL MASSIRA MC , MA) observed 0300 UTC 21 February 2019
Temperature: 8.0°C (46°F)
Dewpoint: 8.0°C (46°F) [RH = 100%]
Pressure (altimeter): 30.12 inches Hg (1020.0 mb)
Winds: from the ENE (70 degrees) at 8 MPH (7 knots; 3.6 m/s)
Visibility: 6 or more miles (10+ km)
Ceiling: ceiling and visibility are OK
Clouds: unknown
Weather: no significant weather observed at this time

METAR text: GMAD 210230Z 07006KT CAVOK 09/09 Q1020 NOSIG
Conditions at: GMAD (AL MASSIRA MC , MA) observed 0230 UTC 21 February 2019
Temperature: 9.0°C (48°F)
Dewpoint: 9.0°C (48°F) [RH = 100%]
Pressure (altimeter): 30.12 inches Hg (1020.0 mb)
Winds: from the ENE (70 degrees) at 7 MPH (6 knots; 3.1 m/s)
Visibility: 6 or more miles (10+ km)
Ceiling: ceiling and visibility are OK
Clouds: unknown
Weather: no significant weather observed at this time

METAR text: GMAD 210200Z 07006KT CAVOK 09/09 Q1020 NOSIG
Conditions at: GMAD (AL MASSIRA MC , MA) observed 0200 UTC 21 February 2019
Temperature: 9.0°C (48°F)
Dewpoint: 9.0°C (48°F) [RH = 100%]
Pressure (altimeter): 30.12 inches Hg (1020.0 mb)
Winds: from the ENE (70 degrees) at 7 MPH (6 knots; 3.1 m/s)
Visibility: 6 or more miles (10+ km)
Ceiling: ceiling and visibility are OK
Clouds: unknown
Weather: no significant weather observed at this time

METAR text: GMAD 210130Z 07006KT CAVOK 10/09 Q1020 NOSIG
Conditions at: GMAD (AL MASSIRA MC , MA) observed 0130 UTC 21 February 2019
Temperature: 10.0°C (50°F)
Dewpoint: 9.0°C (48°F) [RH = 93%]
Pressure (altimeter): 30.12 inches Hg (1020.0 mb)
Winds: from the ENE (70 degrees) at 7 MPH (6 knots; 3.1 m/s)
Visibility: 6 or more miles (10+ km)
Ceiling: ceiling and visibility are OK
Clouds: unknown
Weather: no significant weather observed at this time

METAR text: GMAD 210100Z 08006KT CAVOK 10/10 Q1020 NOSIG
Conditions at: GMAD (AL MASSIRA MC , MA) observed 0100 UTC 21 February 2019
Temperature: 10.0°C (50°F)
Dewpoint: 10.0°C (50°F) [RH = 100%]
Pressure (altimeter): 30.12 inches Hg (1020.0 mb)
Winds: from the E (80 degrees) at 7 MPH (6 knots; 3.1 m/s)
Visibility: 6 or more miles (10+ km)
Ceiling: ceiling and visibility are OK
Clouds: unknown
Weather: no significant weather observed at this time

METAR text: GMAD 210030Z 08005KT CAVOK 10/09 Q1020 NOSIG
Conditions at: GMAD (AL MASSIRA MC , MA) observed 0030 UTC 21 February 2019
Temperature: 10.0°C (50°F)
Dewpoint: 9.0°C (48°F) [RH = 93%]
Pressure (altimeter): 30.12 inches Hg (1020.0 mb)
Winds: from the E (80 degrees) at 6 MPH (5 knots; 2.6 m/s)
Visibility: 6 or more miles (10+ km)
Ceiling: ceiling and visibility are OK
Clouds: unknown
Weather: no significant weather observed at this time

METAR text: GMAD 210000Z 06004KT CAVOK 10/09 Q1020 NOSIG
Conditions at: GMAD (AL MASSIRA MC , MA) observed 0000 UTC 21 February 2019
Temperature: 10.0°C (50°F)
Dewpoint: 9.0°C (48°F) [RH = 93%]
Pressure (altimeter): 30.12 inches Hg (1020.0 mb)
Winds: from the ENE (60 degrees) at 5 MPH (4 knots; 2.1 m/s)
Visibility: 6 or more miles (10+ km)
Ceiling: ceiling and visibility are OK
Clouds: unknown
Weather: no significant weather observed at this time

METAR text: GMAD 202330Z 08004KT CAVOK 10/10 Q1021 NOSIG
Conditions at: GMAD (AL MASSIRA MC , MA) observed 2330 UTC 20 February 2019
Temperature: 10.0°C (50°F)
Dewpoint: 10.0°C (50°F) [RH = 100%]
Pressure (altimeter): 30.15 inches Hg (1021.0 mb)
Winds: from the E (80 degrees) at 5 MPH (4 knots; 2.1 m/s)
Visibility: 6 or more miles (10+ km)
Ceiling: ceiling and visibility are OK
Clouds: unknown
Weather: no significant weather observed at this time

METAR text: GMAD 202300Z 15005KT 030V140 CAVOK 10/09 Q1021 NOSIG
Conditions at: GMAD (AL MASSIRA MC , MA) observed 2300 UTC 20 February 2019
Temperature: 10.0°C (50°F)
Dewpoint: 9.0°C (48°F) [RH = 93%]
Pressure (altimeter): 30.15 inches Hg (1021.0 mb)
Winds: from the SSE (150 degrees) at 6 MPH (5 knots; 2.6 m/s)
Visibility: 6 or more miles (10+ km)
Ceiling: ceiling and visibility are OK
Clouds: unknown
Weather: no significant weather observed at this time

METAR text: GMAD 202230Z 18006KT CAVOK 12/10 Q1020 NOSIG
Conditions at: GMAD (AL MASSIRA MC , MA) observed 2230 UTC 20 February 2019
Temperature: 12.0°C (54°F)
Dewpoint: 10.0°C (50°F) [RH = 88%]
Pressure (altimeter): 30.12 inches Hg (1020.0 mb)
Winds: from the S (180 degrees) at 7 MPH (6 knots; 3.1 m/s)
Visibility: 6 or more miles (10+ km)
Ceiling: ceiling and visibility are OK
Clouds: unknown
Weather: no significant weather observed at this time

METAR text: GMAD 202200Z 19007KT CAVOK 12/11 Q1020 NOSIG
Conditions at: GMAD (AL MASSIRA MC , MA) observed 2200 UTC 20 February 2019
Temperature: 12.0°C (54°F)
Dewpoint: 11.0°C (52°F) [RH = 94%]
Pressure (altimeter): 30.12 inches Hg (1020.0 mb)
Winds: from the S (190 degrees) at 8 MPH (7 knots; 3.6 m/s)
Visibility: 6 or more miles (10+ km)
Ceiling: ceiling and visibility are OK
Clouds: unknown
Weather: no significant weather observed at this time

METAR text: GMAD 202130Z 20008KT CAVOK 13/11 Q1020 NOSIG
Conditions at: GMAD (AL MASSIRA MC , MA) observed 2130 UTC 20 February 2019
Temperature: 13.0°C (55°F)
Dewpoint: 11.0°C (52°F) [RH = 88%]
Pressure (altimeter): 30.12 inches Hg (1020.0 mb)
Winds: from the SSW (200 degrees) at 9 MPH (8 knots; 4.1 m/s)
Visibility: 6 or more miles (10+ km)
Ceiling: ceiling and visibility are OK
Clouds: unknown
Weather: no significant weather observed at this time

METAR text: GMAD 202100Z 20008KT CAVOK 13/11 Q1020 NOSIG
Conditions at: GMAD (AL MASSIRA MC , MA) observed 2100 UTC 20 February 2019
Temperature: 13.0°C (55°F)
Dewpoint: 11.0°C (52°F) [RH = 88%]
Pressure (altimeter): 30.12 inches Hg (1020.0 mb)
Winds: from the SSW (200 degrees) at 9 MPH (8 knots; 4.1 m/s)
Visibility: 6 or more miles (10+ km)
Ceiling: ceiling and visibility are OK
Clouds: unknown
Weather: no significant weather observed at this time

METAR text: GMAD 202030Z 20008KT CAVOK 13/11 Q1019 NOSIG
Conditions at: GMAD (AL MASSIRA MC , MA) observed 2030 UTC 20 February 2019
Temperature: 13.0°C (55°F)
Dewpoint: 11.0°C (52°F) [RH = 88%]
Pressure (altimeter): 30.09 inches Hg (1019.0 mb)
Winds: from the SSW (200 degrees) at 9 MPH (8 knots; 4.1 m/s)
Visibility: 6 or more miles (10+ km)
Ceiling: ceiling and visibility are OK
Clouds: unknown
Weather: no significant weather observed at this time

METAR text: GMAD 202000Z 21007KT CAVOK 14/10 Q1019 NOSIG
Conditions at: GMAD (AL MASSIRA MC , MA) observed 2000 UTC 20 February 2019
Temperature: 14.0°C (57°F)
Dewpoint: 10.0°C (50°F) [RH = 77%]
Pressure (altimeter): 30.09 inches Hg (1019.0 mb)
Winds: from the SSW (210 degrees) at 8 MPH (7 knots; 3.6 m/s)
Visibility: 6 or more miles (10+ km)
Ceiling: ceiling and visibility are OK
Clouds: unknown
Weather: no significant weather observed at this time

METAR text: GMAD 201930Z 23008KT CAVOK 14/09 Q1018 NOSIG
Conditions at: GMAD (AL MASSIRA MC , MA) observed 1930 UTC 20 February 2019
Temperature: 14.0°C (57°F)
Dewpoint: 9.0°C (48°F) [RH = 72%]
Pressure (altimeter): 30.06 inches Hg (1018.0 mb)
Winds: from the SW (230 degrees) at 9 MPH (8 knots; 4.1 m/s)
Visibility: 6 or more miles (10+ km)
Ceiling: ceiling and visibility are OK
Clouds: unknown
Weather: no significant weather observed at this time

METAR text: GMAD 201900Z 25009KT CAVOK 15/09 Q1018 NOSIG
Conditions at: GMAD (AL MASSIRA MC , MA) observed 1900 UTC 20 February 2019
Temperature: 15.0°C (59°F)
Dewpoint: 9.0°C (48°F) [RH = 67%]
Pressure (altimeter): 30.06 inches Hg (1018.0 mb)
Winds: from the WSW (250 degrees) at 10 MPH (9 knots; 4.6 m/s)
Visibility: 6 or more miles (10+ km)
Ceiling: ceiling and visibility are OK
Clouds: unknown
Weather: no significant weather observed at this time

METAR text: GMAD 201830Z 26010KT CAVOK 16/09 Q1017 NOSIG
Conditions at: GMAD (AL MASSIRA MC , MA) observed 1830 UTC 20 February 2019
Temperature: 16.0°C (61°F)
Dewpoint: 9.0°C (48°F) [RH = 63%]
Pressure (altimeter): 30.03 inches Hg (1017.0 mb)
Winds: from the W (260 degrees) at 12 MPH (10 knots; 5.1 m/s)
Visibility: 6 or more miles (10+ km)
Ceiling: ceiling and visibility are OK
Clouds: unknown
Weather: no significant weather observed at this time

METAR text: GMAD 201800Z AUTO 26012KT CAVOK 17/09 Q1017
Conditions at: GMAD (AL MASSIRA MC , MA) observed 1800 UTC 20 February 2019
Temperature: 17.0°C (63°F)
Dewpoint: 9.0°C (48°F) [RH = 59%]
Pressure (altimeter): 30.03 inches Hg (1017.0 mb)
Winds: from the W (260 degrees) at 14 MPH (12 knots; 6.2 m/s)
Visibility: 6 or more miles (10+ km)
Ceiling: ceiling and visibility are OK
Clouds: unknown
Weather: no significant weather observed at this time

METAR text: GMAD 201730Z 27013KT CAVOK 18/08 Q1017 NOSIG
Conditions at: GMAD (AL MASSIRA MC , MA) observed 1730 UTC 20 February 2019
Temperature: 18.0°C (64°F)
Dewpoint: 8.0°C (46°F) [RH = 52%]
Pressure (altimeter): 30.03 inches Hg (1017.0 mb)
Winds: from the W (270 degrees) at 15 MPH (13 knots; 6.7 m/s)
Visibility: 6 or more miles (10+ km)
Ceiling: ceiling and visibility are OK
Clouds: unknown
Weather: no significant weather observed at this time

METAR text: GMAD 201700Z 27012KT CAVOK 19/08 Q1017 NOSIG
Conditions at: GMAD (AL MASSIRA MC , MA) observed 1700 UTC 20 February 2019
Temperature: 19.0°C (66°F)
Dewpoint: 8.0°C (46°F) [RH = 49%]
Pressure (altimeter): 30.03 inches Hg (1017.0 mb)
Winds: from the W (270 degrees) at 14 MPH (12 knots; 6.2 m/s)
Visibility: 6 or more miles (10+ km)
Ceiling: ceiling and visibility are OK
Clouds: unknown
Weather: no significant weather observed at this time

METAR text: GMAD 201630Z 27012KT CAVOK 20/09 Q1017 NOSIG
Conditions at: GMAD (AL MASSIRA MC , MA) observed 1630 UTC 20 February 2019
Temperature: 20.0°C (68°F)
Dewpoint: 9.0°C (48°F) [RH = 49%]
Pressure (altimeter): 30.03 inches Hg (1017.0 mb)
Winds: from the W (270 degrees) at 14 MPH (12 knots; 6.2 m/s)
Visibility: 6 or more miles (10+ km)
Ceiling: ceiling and visibility are OK
Clouds: unknown
Weather: no significant weather observed at this time

METAR text: GMAD 201600Z 27010KT CAVOK 21/09 Q1017 NOSIG
Conditions at: GMAD (AL MASSIRA MC , MA) observed 1600 UTC 20 February 2019
Temperature: 21.0°C (70°F)
Dewpoint: 9.0°C (48°F) [RH = 46%]
Pressure (altimeter): 30.03 inches Hg (1017.0 mb)
Winds: from the W (270 degrees) at 12 MPH (10 knots; 5.1 m/s)
Visibility: 6 or more miles (10+ km)
Ceiling: ceiling and visibility are OK
Clouds: unknown
Weather: no significant weather observed at this time

METAR text: GMAD 201500Z 30004KT 280V060 CAVOK 22/05 Q1016 NOSIG
Conditions at: GMAD (AL MASSIRA MC , MA) observed 1500 UTC 20 February 2019
Temperature: 22.0°C (72°F)
Dewpoint: 5.0°C (41°F) [RH = 33%]
Pressure (altimeter): 30.00 inches Hg (1016.0 mb)
Winds: from the WNW (300 degrees) at 5 MPH (4 knots; 2.1 m/s)
Visibility: 6 or more miles (10+ km)
Ceiling: ceiling and visibility are OK
Clouds: unknown
Weather: no significant weather observed at this time

METAR text: GMAD 201430Z 27003KT 240V310 CAVOK 22/04 Q1017 NOSIG
Conditions at: GMAD (AL MASSIRA MC , MA) observed 1430 UTC 20 February 2019
Temperature: 22.0°C (72°F)
Dewpoint: 4.0°C (39°F) [RH = 31%]
Pressure (altimeter): 30.03 inches Hg (1017.0 mb)
Winds: from the W (270 degrees) at 3 MPH (3 knots; 1.5 m/s)
Visibility: 6 or more miles (10+ km)
Ceiling: ceiling and visibility are OK
Clouds: unknown
Weather: no significant weather observed at this time

Forecast for: GMAD (AL MASSIRA MC , MA)
Text: TAF GMAD 212300Z 2200/2306 06008KT CAVOK
Forecast period: 0000 UTC 22 February 2019 to 0600 UTC 23 February 2019
Forecast type: FROM: standard forecast or significant change
Winds: from the ENE (60 degrees) at 9 MPH (8 knots; 4.1 m/s)
Visibility: 6 or more miles 10+ km)
Ceiling: unknown
Clouds: missing
Weather: NSW  (no significant weather)